sensor_id;sensor_type;location;lat;lon;timestamp;pressure;altitude;pressure_sealevel;temperature;humidity
79129;BME280;68529;43.286;23.360;2024-03-02T00:00:06;98862.91;;;9.26;71.43
79129;BME280;68529;43.286;23.360;2024-03-02T00:02:43;98858.19;;;9.36;71.28
79129;BME280;68529;43.286;23.360;2024-03-02T00:05:20;98857.97;;;9.42;71.00
79129;BME280;68529;43.286;23.360;2024-03-02T00:07:53;98857.75;;;9.48;70.93
79129;BME280;68529;43.286;23.360;2024-03-02T00:10:22;98862.88;;;9.51;70.56
79129;BME280;68529;43.286;23.360;2024-03-02T00:12:53;98855.88;;;9.52;70.55
79129;BME280;68529;43.286;23.360;2024-03-02T00:17:57;98848.72;;;9.55;70.74
79129;BME280;68529;43.286;23.360;2024-03-02T00:20:24;98851.31;;;9.57;70.41
79129;BME280;68529;43.286;23.360;2024-03-02T00:23:04;98848.00;;;9.52;70.45
79129;BME280;68529;43.286;23.360;2024-03-02T00:25:38;98854.84;;;9.56;70.42
79129;BME280;68529;43.286;23.360;2024-03-02T00:28:05;98854.72;;;9.59;70.42
79129;BME280;68529;43.286;23.360;2024-03-02T00:33:12;98849.59;;;9.56;70.05
79129;BME280;68529;43.286;23.360;2024-03-02T00:35:38;98856.34;;;9.38;71.22
79129;BME280;68529;43.286;23.360;2024-03-02T00:38:06;98845.75;;;9.41;70.88
79129;BME280;68529;43.286;23.360;2024-03-02T00:40:32;98840.19;;;9.50;70.52
79129;BME280;68529;43.286;23.360;2024-03-02T00:42:58;98843.56;;;9.54;70.54
79129;BME280;68529;43.286;23.360;2024-03-02T00:45:25;98840.03;;;9.55;70.31
79129;BME280;68529;43.286;23.360;2024-03-02T00:47:51;98841.81;;;9.54;70.59
79129;BME280;68529;43.286;23.360;2024-03-02T00:50:16;98844.47;;;9.53;70.28
79129;BME280;68529;43.286;23.360;2024-03-02T00:52:42;98847.94;;;9.53;70.30
79129;BME280;68529;43.286;23.360;2024-03-02T00:55:08;98840.03;;;9.55;70.30
79129;BME280;68529;43.286;23.360;2024-03-02T00:57:34;98852.06;;;9.60;70.06
79129;BME280;68529;43.286;23.360;2024-03-02T01:00:00;98852.78;;;9.64;70.04
79129;BME280;68529;43.286;23.360;2024-03-02T01:02:26;98854.44;;;9.66;70.06
79129;BME280;68529;43.286;23.360;2024-03-02T01:04:51;98858.84;;;9.66;69.96
79129;BME280;68529;43.286;23.360;2024-03-02T01:07:17;98852.97;;;9.59;70.10
79129;BME280;68529;43.286;23.360;2024-03-02T01:09:43;98855.91;;;9.50;70.17
79129;BME280;68529;43.286;23.360;2024-03-02T01:12:08;98859.50;;;9.48;70.20
79129;BME280;68529;43.286;23.360;2024-03-02T01:14:33;98858.59;;;9.49;70.18
79129;BME280;68529;43.286;23.360;2024-03-02T01:17:00;98852.41;;;9.51;70.07
79129;BME280;68529;43.286;23.360;2024-03-02T01:19:28;98848.00;;;9.52;70.22
79129;BME280;68529;43.286;23.360;2024-03-02T01:21:54;98848.06;;;9.50;70.45
79129;BME280;68529;43.286;23.360;2024-03-02T01:24:19;98847.16;;;9.51;69.99
79129;BME280;68529;43.286;23.360;2024-03-02T01:26:44;98843.00;;;9.46;70.73
79129;BME280;68529;43.286;23.360;2024-03-02T01:29:10;98842.03;;;9.23;71.55
79129;BME280;68529;43.286;23.360;2024-03-02T01:31:35;98829.66;;;9.27;71.51
79129;BME280;68529;43.286;23.360;2024-03-02T01:34:00;98820.97;;;9.26;71.29
79129;BME280;68529;43.286;23.360;2024-03-02T01:36:26;98829.63;;;9.28;71.55
79129;BME280;68529;43.286;23.360;2024-03-02T01:38:51;98828.47;;;9.12;71.87
79129;BME280;68529;43.286;23.360;2024-03-02T01:41:16;98819.66;;;8.90;72.90
79129;BME280;68529;43.286;23.360;2024-03-02T01:43:42;98817.50;;;9.01;72.19
79129;BME280;68529;43.286;23.360;2024-03-02T01:46:07;98810.34;;;9.06;71.85
79129;BME280;68529;43.286;23.360;2024-03-02T01:48:33;98804.13;;;9.09;71.76
79129;BME280;68529;43.286;23.360;2024-03-02T01:50:59;98802.28;;;9.12;71.89
79129;BME280;68529;43.286;23.360;2024-03-02T01:53:24;98797.06;;;9.11;72.15
79129;BME280;68529;43.286;23.360;2024-03-02T01:55:50;98798.81;;;9.10;72.12
79129;BME280;68529;43.286;23.360;2024-03-02T01:58:16;98809.31;;;9.10;72.36
79129;BME280;68529;43.286;23.360;2024-03-02T02:00:41;98809.41;;;9.07;72.26
79129;BME280;68529;43.286;23.360;2024-03-02T02:03:07;98815.78;;;9.00;72.88
79129;BME280;68529;43.286;23.360;2024-03-02T02:05:33;98819.16;;;8.79;73.72
79129;BME280;68529;43.286;23.360;2024-03-02T02:08:00;98819.56;;;8.67;74.41
79129;BME280;68529;43.286;23.360;2024-03-02T02:10:26;98809.75;;;8.73;74.20
79129;BME280;68529;43.286;23.360;2024-03-02T02:12:51;98806.69;;;8.86;73.54
79129;BME280;68529;43.286;23.360;2024-03-02T02:15:27;98800.25;;;8.96;73.14
79129;BME280;68529;43.286;23.360;2024-03-02T02:17:54;98815.56;;;8.82;73.89
79129;BME280;68529;43.286;23.360;2024-03-02T02:20:19;98800.66;;;8.84;73.77
79129;BME280;68529;43.286;23.360;2024-03-02T02:25:20;98802.81;;;8.97;73.32
79129;BME280;68529;43.286;23.360;2024-03-02T02:27:46;98798.41;;;8.98;73.31
79129;BME280;68529;43.286;23.360;2024-03-02T02:30:11;98796.97;;;8.89;73.65
79129;BME280;68529;43.286;23.360;2024-03-02T02:32:37;98798.53;;;8.70;74.29
79129;BME280;68529;43.286;23.360;2024-03-02T02:35:02;98795.81;;;8.73;74.35
79129;BME280;68529;43.286;23.360;2024-03-02T02:37:28;98799.91;;;8.80;74.30
79129;BME280;68529;43.286;23.360;2024-03-02T02:39:54;98803.38;;;8.81;74.34
79129;BME280;68529;43.286;23.360;2024-03-02T02:42:19;98798.09;;;8.82;74.43
79129;BME280;68529;43.286;23.360;2024-03-02T02:44:44;98801.84;;;8.75;74.69
79129;BME280;68529;43.286;23.360;2024-03-02T02:47:10;98805.34;;;8.74;74.55
79129;BME280;68529;43.286;23.360;2024-03-02T02:49:35;98802.00;;;8.70;75.08
79129;BME280;68529;43.286;23.360;2024-03-02T02:52:00;98801.78;;;8.76;74.81
79129;BME280;68529;43.286;23.360;2024-03-02T02:54:26;98804.34;;;8.78;74.63
79129;BME280;68529;43.286;23.360;2024-03-02T02:56:51;98806.06;;;8.79;74.97
79129;BME280;68529;43.286;23.360;2024-03-02T02:59:16;98803.34;;;8.82;74.69
79129;BME280;68529;43.286;23.360;2024-03-02T03:01:42;98806.66;;;8.87;74.52
79129;BME280;68529;43.286;23.360;2024-03-02T03:04:07;98815.84;;;8.99;74.15
79129;BME280;68529;43.286;23.360;2024-03-02T03:06:32;98808.94;;;8.96;74.27
79129;BME280;68529;43.286;23.360;2024-03-02T03:08:58;98816.69;;;8.99;73.98
79129;BME280;68529;43.286;23.360;2024-03-02T03:11:23;98821.44;;;8.88;74.43
79129;BME280;68529;43.286;23.360;2024-03-02T03:13:50;98820.34;;;8.95;74.24
79129;BME280;68529;43.286;23.360;2024-03-02T03:16:15;98812.16;;;9.04;74.28
79129;BME280;68529;43.286;23.360;2024-03-02T03:18:41;98807.41;;;9.15;73.73
79129;BME280;68529;43.286;23.360;2024-03-02T03:21:06;98818.50;;;9.22;73.17
79129;BME280;68529;43.286;23.360;2024-03-02T03:23:32;98815.72;;;9.26;72.76
79129;BME280;68529;43.286;23.360;2024-03-02T03:25:57;98820.03;;;9.27;72.61
79129;BME280;68529;43.286;23.360;2024-03-02T03:28:22;98806.03;;;9.28;72.69
79129;BME280;68529;43.286;23.360;2024-03-02T03:30:48;98808.56;;;9.31;72.44
79129;BME280;68529;43.286;23.360;2024-03-02T03:33:13;98807.69;;;9.31;72.33
79129;BME280;68529;43.286;23.360;2024-03-02T03:35:39;98819.03;;;9.31;72.25
79129;BME280;68529;43.286;23.360;2024-03-02T03:38:04;98831.50;;;9.25;72.53
79129;BME280;68529;43.286;23.360;2024-03-02T03:40:30;98825.19;;;9.30;72.54
79129;BME280;68529;43.286;23.360;2024-03-02T03:42:55;98831.94;;;9.38;72.03
79129;BME280;68529;43.286;23.360;2024-03-02T03:45:21;98830.88;;;9.42;72.03
79129;BME280;68529;43.286;23.360;2024-03-02T03:47:47;98823.78;;;9.45;71.79
79129;BME280;68529;43.286;23.360;2024-03-02T03:50:12;98812.41;;;9.46;71.86
79129;BME280;68529;43.286;23.360;2024-03-02T03:52:38;98816.66;;;9.49;71.59
79129;BME280;68529;43.286;23.360;2024-03-02T03:55:03;98817.56;;;9.48;71.53
79129;BME280;68529;43.286;23.360;2024-03-02T03:57:30;98815.72;;;9.50;71.91
79129;BME280;68529;43.286;23.360;2024-03-02T03:59:55;98808.84;;;9.47;71.65
79129;BME280;68529;43.286;23.360;2024-03-02T04:02:21;98810.03;;;9.38;71.90
79129;BME280;68529;43.286;23.360;2024-03-02T04:04:46;98813.47;;;9.41;71.88
79129;BME280;68529;43.286;23.360;2024-03-02T04:07:12;98814.25;;;9.43;71.86
79129;BME280;68529;43.286;23.360;2024-03-02T04:09:37;98823.97;;;9.41;71.84
79129;BME280;68529;43.286;23.360;2024-03-02T04:12:03;98820.28;;;9.45;71.75
79129;BME280;68529;43.286;23.360;2024-03-02T04:14:28;98816.78;;;9.46;71.60
79129;BME280;68529;43.286;23.360;2024-03-02T04:16:53;98817.22;;;9.33;72.13
79129;BME280;68529;43.286;23.360;2024-03-02T04:19:19;98824.66;;;9.21;72.43
79129;BME280;68529;43.286;23.360;2024-03-02T04:21:44;98815.88;;;9.22;72.60
79129;BME280;68529;43.286;23.360;2024-03-02T04:24:10;98820.16;;;9.24;72.35
79129;BME280;68529;43.286;23.360;2024-03-02T04:26:35;98819.16;;;9.28;72.25
79129;BME280;68529;43.286;23.360;2024-03-02T04:29:00;98819.16;;;9.28;72.32
79129;BME280;68529;43.286;23.360;2024-03-02T04:31:27;98822.63;;;9.29;72.21
79129;BME280;68529;43.286;23.360;2024-03-02T04:33:52;98828.00;;;9.24;72.27
79129;BME280;68529;43.286;23.360;2024-03-02T04:36:17;98816.56;;;9.27;72.35
79129;BME280;68529;43.286;23.360;2024-03-02T04:38:43;98814.81;;;9.27;72.46
79129;BME280;68529;43.286;23.360;2024-03-02T04:41:08;98826.91;;;9.31;72.37
79129;BME280;68529;43.286;23.360;2024-03-02T04:43:34;98822.53;;;9.32;72.25
79129;BME280;68529;43.286;23.360;2024-03-02T04:46:00;98815.72;;;9.26;72.53
79129;BME280;68529;43.286;23.360;2024-03-02T04:48:26;98820.41;;;9.18;72.86
79129;BME280;68529;43.286;23.360;2024-03-02T04:50:51;98824.72;;;9.19;72.82
79129;BME280;68529;43.286;23.360;2024-03-02T04:53:17;98824.66;;;9.21;72.79
79129;BME280;68529;43.286;23.360;2024-03-02T04:55:42;98833.38;;;9.21;72.71
79129;BME280;68529;43.286;23.360;2024-03-02T04:58:08;98828.00;;;9.24;72.56
79129;BME280;68529;43.286;23.360;2024-03-02T05:00:34;98833.16;;;9.27;72.57
79129;BME280;68529;43.286;23.360;2024-03-02T05:02:59;98835.66;;;9.30;72.43
79129;BME280;68529;43.286;23.360;2024-03-02T05:05:24;98838.28;;;9.30;72.46
79129;BME280;68529;43.286;23.360;2024-03-02T05:07:50;98835.84;;;9.26;72.50
79129;BME280;68529;43.286;23.360;2024-03-02T05:10:15;98835.28;;;9.16;73.29
79129;BME280;68529;43.286;23.360;2024-03-02T05:12:41;98841.28;;;9.20;73.00
79129;BME280;68529;43.286;23.360;2024-03-02T05:15:07;98838.59;;;9.21;73.01
79129;BME280;68529;43.286;23.360;2024-03-02T05:17:33;98842.94;;;9.22;72.61
79129;BME280;68529;43.286;23.360;2024-03-02T05:19:58;98847.28;;;9.23;72.77
79129;BME280;68529;43.286;23.360;2024-03-02T05:22:24;98848.19;;;9.22;72.85
79129;BME280;68529;43.286;23.360;2024-03-02T05:24:49;98850.91;;;9.19;73.03
79129;BME280;68529;43.286;23.360;2024-03-02T05:27:14;98847.38;;;9.20;72.86
79129;BME280;68529;43.286;23.360;2024-03-02T05:29:40;98856.84;;;9.24;72.65
79129;BME280;68529;43.286;23.360;2024-03-02T05:32:05;98854.13;;;9.27;72.48
79129;BME280;68529;43.286;23.360;2024-03-02T05:34:31;98861.06;;;9.28;72.23
79129;BME280;68529;43.286;23.360;2024-03-02T05:36:58;98861.19;;;9.25;72.72
79129;BME280;68529;43.286;23.360;2024-03-02T05:39:23;98866.44;;;9.25;72.62
79129;BME280;68529;43.286;23.360;2024-03-02T05:41:48;98869.13;;;9.24;72.73
79129;BME280;68529;43.286;23.360;2024-03-02T05:44:14;98877.13;;;9.19;73.00
79129;BME280;68529;43.286;23.360;2024-03-02T05:46:40;98874.09;;;9.05;73.68
79129;BME280;68529;43.286;23.360;2024-03-02T05:49:06;98873.59;;;8.96;74.02
79129;BME280;68529;43.286;23.360;2024-03-02T05:51:33;98874.97;;;8.79;74.50
79129;BME280;68529;43.286;23.360;2024-03-02T05:53:58;98874.75;;;8.87;74.43
79129;BME280;68529;43.286;23.360;2024-03-02T05:56:24;98872.63;;;8.98;73.85
79129;BME280;68529;43.286;23.360;2024-03-02T05:58:49;98873.25;;;9.05;73.75
79129;BME280;68529;43.286;23.360;2024-03-02T06:01:33;98879.25;;;9.08;73.90
79129;BME280;68529;43.286;23.360;2024-03-02T06:03:58;98884.47;;;9.08;73.84
79129;BME280;68529;43.286;23.360;2024-03-02T06:06:24;98880.88;;;9.12;73.84
79129;BME280;68529;43.286;23.360;2024-03-02T06:08:50;98879.03;;;9.14;73.96
79129;BME280;68529;43.286;23.360;2024-03-02T06:11:15;98880.59;;;9.20;73.30
79129;BME280;68529;43.286;23.360;2024-03-02T06:13:41;98884.06;;;9.20;73.64
79129;BME280;68529;43.286;23.360;2024-03-02T06:16:06;98885.56;;;9.27;73.47
79129;BME280;68529;43.286;23.360;2024-03-02T06:18:32;98887.38;;;9.25;73.25
79129;BME280;68529;43.286;23.360;2024-03-02T06:20:57;98891.72;;;9.26;73.42
79129;BME280;68529;43.286;23.360;2024-03-02T06:23:22;98884.69;;;9.27;73.12
79129;BME280;68529;43.286;23.360;2024-03-02T06:25:48;98881.06;;;9.31;73.25
79129;BME280;68529;43.286;23.360;2024-03-02T06:28:13;98880.97;;;9.34;73.20
79129;BME280;68529;43.286;23.360;2024-03-02T06:30:41;98887.78;;;9.38;72.82
79129;BME280;68529;43.286;23.360;2024-03-02T06:33:07;98886.13;;;9.35;72.98
79129;BME280;68529;43.286;23.360;2024-03-02T06:35:32;98887.06;;;9.34;73.07
79129;BME280;68529;43.286;23.360;2024-03-02T06:37:58;98890.88;;;9.26;73.46
79129;BME280;68529;43.286;23.360;2024-03-02T06:40:23;98889.78;;;9.31;73.41
79129;BME280;68529;43.286;23.360;2024-03-02T06:42:48;98888.06;;;9.30;73.42
79129;BME280;68529;43.286;23.360;2024-03-02T06:45:14;98894.00;;;9.35;73.21
79129;BME280;68529;43.286;23.360;2024-03-02T06:47:39;98894.81;;;9.38;73.26
79129;BME280;68529;43.286;23.360;2024-03-02T06:50:05;98896.88;;;9.29;73.38
79129;BME280;68529;43.286;23.360;2024-03-02T06:52:32;98904.06;;;9.23;73.76
79129;BME280;68529;43.286;23.360;2024-03-02T06:54:57;98904.56;;;9.34;73.30
79129;BME280;68529;43.286;23.360;2024-03-02T06:57:22;98899.97;;;9.41;72.83
79129;BME280;68529;43.286;23.360;2024-03-02T06:59:49;98908.53;;;9.46;72.90
79129;BME280;68529;43.286;23.360;2024-03-02T07:02:16;98900.56;;;9.49;72.57
79129;BME280;68529;43.286;23.360;2024-03-02T07:04:42;98901.16;;;9.55;72.22
79129;BME280;68529;43.286;23.360;2024-03-02T07:07:07;98901.13;;;9.57;72.25
79129;BME280;68529;43.286;23.360;2024-03-02T07:09:33;98902.59;;;9.64;72.22
79129;BME280;68529;43.286;23.360;2024-03-02T07:11:58;98910.47;;;9.64;72.36
79129;BME280;68529;43.286;23.360;2024-03-02T07:14:23;98907.06;;;9.62;72.44
79129;BME280;68529;43.286;23.360;2024-03-02T07:17:09;98904.50;;;9.60;72.64
79129;BME280;68529;43.286;23.360;2024-03-02T07:19:35;98901.81;;;9.62;72.65
79129;BME280;68529;43.286;23.360;2024-03-02T07:22:00;98901.88;;;9.60;73.02
79129;BME280;68529;43.286;23.360;2024-03-02T07:24:26;98900.91;;;9.63;72.52
79129;BME280;68529;43.286;23.360;2024-03-02T07:26:52;98909.56;;;9.65;72.68
79129;BME280;68529;43.286;23.360;2024-03-02T07:29:17;98909.59;;;9.63;72.92
79129;BME280;68529;43.286;23.360;2024-03-02T07:31:42;98910.44;;;9.65;72.91
79129;BME280;68529;43.286;23.360;2024-03-02T07:34:08;98914.81;;;9.65;72.92
79129;BME280;68529;43.286;23.360;2024-03-02T07:36:33;98918.41;;;9.62;73.02
79129;BME280;68529;43.286;23.360;2024-03-02T07:38:59;98920.84;;;9.67;72.51
79129;BME280;68529;43.286;23.360;2024-03-02T07:41:24;98920.63;;;9.73;72.24
79129;BME280;68529;43.286;23.360;2024-03-02T07:43:49;98918.66;;;9.79;72.17
79129;BME280;68529;43.286;23.360;2024-03-02T07:46:15;98923.78;;;9.82;71.79
79129;BME280;68529;43.286;23.360;2024-03-02T07:48:42;98930.69;;;9.85;71.91
79129;BME280;68529;43.286;23.360;2024-03-02T07:51:07;98926.25;;;9.87;71.99
79129;BME280;68529;43.286;23.360;2024-03-02T07:53:32;98925.19;;;9.91;72.16
79129;BME280;68529;43.286;23.360;2024-03-02T07:55:58;98924.38;;;9.90;71.79
79129;BME280;68529;43.286;23.360;2024-03-02T07:58:27;98923.28;;;9.96;71.91
79129;BME280;68529;43.286;23.360;2024-03-02T08:00:53;98926.63;;;10.00;71.82
79129;BME280;68529;43.286;23.360;2024-03-02T08:03:18;98928.25;;;10.04;71.68
79129;BME280;68529;43.286;23.360;2024-03-02T08:05:44;98935.13;;;10.06;71.41
79129;BME280;68529;43.286;23.360;2024-03-02T08:08:09;98937.66;;;10.09;71.32
79129;BME280;68529;43.286;23.360;2024-03-02T08:10:35;98939.28;;;10.13;71.43
79129;BME280;68529;43.286;23.360;2024-03-02T08:13:01;98940.16;;;10.12;71.47
79129;BME280;68529;43.286;23.360;2024-03-02T08:15:26;98938.44;;;10.13;71.55
79129;BME280;68529;43.286;23.360;2024-03-02T08:17:52;98943.69;;;10.11;71.66
79129;BME280;68529;43.286;23.360;2024-03-02T08:20:17;98940.16;;;10.12;71.12
79129;BME280;68529;43.286;23.360;2024-03-02T08:22:44;98942.00;;;10.10;71.40
79129;BME280;68529;43.286;23.360;2024-03-02T08:25:10;98939.22;;;10.15;71.33
79129;BME280;68529;43.286;23.360;2024-03-02T08:27:36;98937.47;;;10.15;71.40
79129;BME280;68529;43.286;23.360;2024-03-02T08:30:02;98934.03;;;10.13;71.20
79129;BME280;68529;43.286;23.360;2024-03-02T08:32:31;98938.44;;;10.11;71.41
79129;BME280;68529;43.286;23.360;2024-03-02T08:34:56;98935.13;;;10.06;71.63
79129;BME280;68529;43.286;23.360;2024-03-02T08:37:22;98941.06;;;10.13;71.40
79129;BME280;68529;43.286;23.360;2024-03-02T08:39:47;98942.63;;;10.17;71.84
79129;BME280;68529;43.286;23.360;2024-03-02T08:42:12;98942.59;;;10.18;71.55
79129;BME280;68529;43.286;23.360;2024-03-02T08:44:38;98937.38;;;10.17;70.88
79129;BME280;68529;43.286;23.360;2024-03-02T08:47:03;98943.50;;;10.17;71.09
79129;BME280;68529;43.286;23.360;2024-03-02T08:49:29;98946.91;;;10.19;71.35
79129;BME280;68529;43.286;23.360;2024-03-02T08:51:54;98937.22;;;10.21;71.00
79129;BME280;68529;43.286;23.360;2024-03-02T08:54:22;98943.56;;;10.16;71.36
79129;BME280;68529;43.286;23.360;2024-03-02T08:56:51;98946.13;;;10.17;71.10
79129;BME280;68529;43.286;23.360;2024-03-02T08:59:16;98943.50;;;10.17;71.31
79129;BME280;68529;43.286;23.360;2024-03-02T09:01:42;98946.91;;;10.19;70.73
79129;BME280;68529;43.286;23.360;2024-03-02T09:04:08;98943.47;;;10.19;70.67
79129;BME280;68529;43.286;23.360;2024-03-02T09:06:34;98950.59;;;10.15;70.47
79129;BME280;68529;43.286;23.360;2024-03-02T09:09:00;98954.84;;;10.18;70.97
79129;BME280;68529;43.286;23.360;2024-03-02T09:11:25;98944.34;;;10.18;70.83
79129;BME280;68529;43.286;23.360;2024-03-02T09:13:51;98949.53;;;10.19;70.92
79129;BME280;68529;43.286;23.360;2024-03-02T09:16:16;98959.25;;;10.17;70.82
79129;BME280;68529;43.286;23.360;2024-03-02T09:18:42;98956.72;;;10.14;70.39
79129;BME280;68529;43.286;23.360;2024-03-02T09:21:07;98960.28;;;10.13;70.77
79129;BME280;68529;43.286;23.360;2024-03-02T09:23:33;98968.34;;;10.07;71.10
79129;BME280;68529;43.286;23.360;2024-03-02T09:25:59;98962.25;;;10.07;71.50
79129;BME280;68529;43.286;23.360;2024-03-02T09:28:24;98961.28;;;10.09;71.48
79129;BME280;68529;43.286;23.360;2024-03-02T09:30:50;98964.00;;;10.06;71.42
79129;BME280;68529;43.286;23.360;2024-03-02T09:33:15;98963.97;;;10.08;71.72
79129;BME280;68529;43.286;23.360;2024-03-02T09:35:41;98966.63;;;10.06;71.21
79129;BME280;68529;43.286;23.360;2024-03-02T09:38:06;98964.78;;;10.08;71.07
79129;BME280;68529;43.286;23.360;2024-03-02T09:40:31;98968.34;;;10.07;71.08
79129;BME280;68529;43.286;23.360;2024-03-02T09:42:57;98972.66;;;10.08;70.93
79129;BME280;68529;43.286;23.360;2024-03-02T09:45:24;98962.06;;;10.11;70.97
79129;BME280;68529;43.286;23.360;2024-03-02T09:47:50;98969.00;;;10.14;71.24
79129;BME280;68529;43.286;23.360;2024-03-02T09:50:16;98974.19;;;10.15;71.23
79129;BME280;68529;43.286;23.360;2024-03-02T09:52:42;98970.72;;;10.15;70.77
79129;BME280;68529;43.286;23.360;2024-03-02T09:55:09;98963.69;;;10.15;71.20
79129;BME280;68529;43.286;23.360;2024-03-02T09:57:36;98979.53;;;10.12;70.97
79129;BME280;68529;43.286;23.360;2024-03-02T10:00:01;98972.63;;;10.10;71.35
79129;BME280;68529;43.286;23.360;2024-03-02T10:02:27;98973.41;;;10.12;71.52
79129;BME280;68529;43.286;23.360;2024-03-02T10:04:52;98976.81;;;10.15;71.21
79129;BME280;68529;43.286;23.360;2024-03-02T10:07:19;98976.59;;;10.21;70.99
79129;BME280;68529;43.286;23.360;2024-03-02T10:09:46;98979.25;;;10.20;70.77
79129;BME280;68529;43.286;23.360;2024-03-02T10:12:13;98976.72;;;10.18;70.85
79129;BME280;68529;43.286;23.360;2024-03-02T10:14:40;98974.13;;;10.17;71.09
79129;BME280;68529;43.286;23.360;2024-03-02T10:17:10;98976.03;;;10.12;71.32
79129;BME280;68529;43.286;23.360;2024-03-02T10:19:36;98966.50;;;10.09;71.43
79129;BME280;68529;43.286;23.360;2024-03-02T10:22:09;98976.16;;;10.09;71.53
79129;BME280;68529;43.286;23.360;2024-03-02T10:24:39;98974.28;;;10.12;71.49
79129;BME280;68529;43.286;23.360;2024-03-02T10:27:22;98974.19;;;10.15;71.45
79129;BME280;68529;43.286;23.360;2024-03-02T10:29:48;98973.34;;;10.15;71.40
79129;BME280;68529;43.286;23.360;2024-03-02T10:32:15;98972.38;;;10.17;70.79
79129;BME280;68529;43.286;23.360;2024-03-02T10:34:41;98974.00;;;10.20;70.89
79129;BME280;68529;43.286;23.360;2024-03-02T10:37:07;98971.47;;;10.18;71.17
79129;BME280;68529;43.286;23.360;2024-03-02T10:39:36;98968.75;;;10.20;70.55
79129;BME280;68529;43.286;23.360;2024-03-02T10:42:02;98965.34;;;10.18;70.67
79129;BME280;68529;43.286;23.360;2024-03-02T10:44:29;98960.84;;;10.21;70.89
79129;BME280;68529;43.286;23.360;2024-03-02T10:46:55;98966.09;;;10.21;71.16
79129;BME280;68529;43.286;23.360;2024-03-02T10:49:23;98973.25;;;10.16;71.58
79129;BME280;68529;43.286;23.360;2024-03-02T10:51:49;98959.06;;;10.22;71.02
79129;BME280;68529;43.286;23.360;2024-03-02T10:54:14;98960.56;;;10.29;70.92
79129;BME280;68529;43.286;23.360;2024-03-02T10:56:41;98953.53;;;10.29;70.94
79129;BME280;68529;43.286;23.360;2024-03-02T11:01:55;98954.03;;;10.39;70.90
79129;BME280;68529;43.286;23.360;2024-03-02T11:04:21;98952.13;;;10.44;70.59
79129;BME280;68529;43.286;23.360;2024-03-02T11:06:50;98950.03;;;10.52;70.82
79129;BME280;68529;43.286;23.360;2024-03-02T11:09:19;98955.22;;;10.53;70.84
79129;BME280;68529;43.286;23.360;2024-03-02T11:11:48;98954.34;;;10.53;70.99
79129;BME280;68529;43.286;23.360;2024-03-02T11:14:17;98943.25;;;10.46;70.60
79129;BME280;68529;43.286;23.360;2024-03-02T11:16:44;98945.94;;;10.45;71.17
79129;BME280;68529;43.286;23.360;2024-03-02T11:19:12;98945.78;;;10.49;71.58
79129;BME280;68529;43.286;23.360;2024-03-02T11:21:38;98949.09;;;10.53;71.30
79129;BME280;68529;43.286;23.360;2024-03-02T11:26:49;98945.38;;;10.59;70.65
79129;BME280;68529;43.286;23.360;2024-03-02T11:32:01;98938.13;;;10.65;69.81
79129;BME280;68529;43.286;23.360;2024-03-02T11:34:36;98946.75;;;10.69;70.02
79129;BME280;68529;43.286;23.360;2024-03-02T11:37:05;98934.28;;;10.74;70.47
79129;BME280;68529;43.286;23.360;2024-03-02T11:39:31;98940.44;;;10.73;70.43
79129;BME280;68529;43.286;23.360;2024-03-02T11:41:57;98931.91;;;10.68;70.55
79129;BME280;68529;43.286;23.360;2024-03-02T11:44:29;98937.28;;;10.65;69.92
79129;BME280;68529;43.286;23.360;2024-03-02T11:46:59;98933.78;;;10.64;70.40
79129;BME280;68529;43.286;23.360;2024-03-02T11:49:51;98934.41;;;10.71;70.63
79129;BME280;68529;43.286;23.360;2024-03-02T11:52:20;98937.06;;;10.69;70.62
79129;BME280;68529;43.286;23.360;2024-03-02T11:54:46;98931.13;;;10.66;70.57
79129;BME280;68529;43.286;23.360;2024-03-02T11:57:17;98936.84;;;10.53;70.29
79129;BME280;68529;43.286;23.360;2024-03-02T11:59:43;98931.81;;;10.47;70.36
79129;BME280;68529;43.286;23.360;2024-03-02T12:02:16;98932.56;;;10.51;70.75
79129;BME280;68529;43.286;23.360;2024-03-02T12:04:43;98932.44;;;10.54;70.59
79129;BME280;68529;43.286;23.360;2024-03-02T12:07:10;98935.00;;;10.56;70.63
79129;BME280;68529;43.286;23.360;2024-03-02T12:09:36;98936.59;;;10.60;70.57
79129;BME280;68529;43.286;23.360;2024-03-02T12:12:05;98937.28;;;10.65;70.72
79129;BME280;68529;43.286;23.360;2024-03-02T12:14:35;98935.50;;;10.65;70.85
79129;BME280;68529;43.286;23.360;2024-03-02T12:17:01;98945.16;;;10.65;70.22
79129;BME280;68529;43.286;23.360;2024-03-02T12:19:27;98935.38;;;10.68;70.38
79129;BME280;68529;43.286;23.360;2024-03-02T12:21:55;98937.91;;;10.71;70.59
79129;BME280;68529;43.286;23.360;2024-03-02T12:24:21;98937.81;;;10.73;69.97
79129;BME280;68529;43.286;23.360;2024-03-02T12:26:49;98935.31;;;10.70;70.26
79129;BME280;68529;43.286;23.360;2024-03-02T12:29:14;98939.84;;;10.66;70.24
79129;BME280;68529;43.286;23.360;2024-03-02T12:31:41;98941.66;;;10.64;69.69
79129;BME280;68529;43.286;23.360;2024-03-02T12:34:08;98941.63;;;10.66;70.03
79129;BME280;68529;43.286;23.360;2024-03-02T12:36:39;98936.25;;;10.69;70.01
79129;BME280;68529;43.286;23.360;2024-03-02T12:39:10;98941.44;;;10.70;70.26
79129;BME280;68529;43.286;23.360;2024-03-02T12:41:38;98932.56;;;10.73;70.17
79129;BME280;68529;43.286;23.360;2024-03-02T12:44:04;98942.28;;;10.71;70.07
79129;BME280;68529;43.286;23.360;2024-03-02T12:46:31;98936.97;;;10.72;70.69
79129;BME280;68529;43.286;23.360;2024-03-02T12:48:56;98943.88;;;10.75;70.51
79129;BME280;68529;43.286;23.360;2024-03-02T12:51:22;98938.56;;;10.76;71.11
79129;BME280;68529;43.286;23.360;2024-03-02T12:53:57;98937.47;;;10.82;70.89
79129;BME280;68529;43.286;23.360;2024-03-02T12:56:24;98943.56;;;10.82;70.75
79129;BME280;68529;43.286;23.360;2024-03-02T12:58:56;98944.34;;;10.84;70.91
79129;BME280;68529;43.286;23.360;2024-03-02T13:01:21;98946.97;;;10.84;70.46
79129;BME280;68529;43.286;23.360;2024-03-02T13:03:50;98946.97;;;10.84;70.63
79129;BME280;68529;43.286;23.360;2024-03-02T13:06:16;98939.97;;;10.85;70.58